sensor_id;sensor_type;location;lat;lon;timestamp;P1;durP1;ratioP1;P2;durP2;ratioP2
21254;SDS011;10785;50.674;17.954;2023-03-17T00:01:23;11.95;;;6.95;;
21254;SDS011;10785;50.674;17.954;2023-03-17T00:03:52;5.40;;;5.10;;
21254;SDS011;10785;50.674;17.954;2023-03-17T00:16:02;8.45;;;6.20;;
21254;SDS011;10785;50.674;17.954;2023-03-17T00:18:33;10.50;;;6.35;;
21254;SDS011;10785;50.674;17.954;2023-03-17T00:21:02;3.40;;;3.20;;
21254;SDS011;10785;50.674;17.954;2023-03-17T00:23:31;4.23;;;3.93;;
21254;SDS011;10785;50.674;17.954;2023-03-17T00:26:00;4.35;;;4.00;;
21254;SDS011;10785;50.674;17.954;2023-03-17T00:28:29;5.50;;;5.07;;
21254;SDS011;10785;50.674;17.954;2023-03-17T00:30:58;4.60;;;4.30;;
21254;SDS011;10785;50.674;17.954;2023-03-17T00:33:37;3.83;;;3.63;;
21254;SDS011;10785;50.674;17.954;2023-03-17T00:36:08;5.60;;;5.20;;
21254;SDS011;10785;50.674;17.954;2023-03-17T00:38:40;6.10;;;5.07;;
21254;SDS011;10785;50.674;17.954;2023-03-17T00:41:09;6.70;;;6.17;;
21254;SDS011;10785;50.674;17.954;2023-03-17T00:43:38;8.13;;;7.22;;
21254;SDS011;10785;50.674;17.954;2023-03-17T00:46:10;5.75;;;5.38;;
21254;SDS011;10785;50.674;17.954;2023-03-17T00:48:46;4.95;;;4.55;;
21254;SDS011;10785;50.674;17.954;2023-03-17T00:51:15;6.70;;;6.10;;
21254;SDS011;10785;50.674;17.954;2023-03-17T00:53:44;6.27;;;4.67;;
21254;SDS011;10785;50.674;17.954;2023-03-17T00:56:13;3.33;;;3.20;;
21254;SDS011;10785;50.674;17.954;2023-03-17T00:58:43;4.85;;;4.55;;
21254;SDS011;10785;50.674;17.954;2023-03-17T01:01:15;4.43;;;3.88;;
21254;SDS011;10785;50.674;17.954;2023-03-17T01:28:16;7.32;;;5.65;;
21254;SDS011;10785;50.674;17.954;2023-03-17T01:30:45;4.70;;;4.40;;
21254;SDS011;10785;50.674;17.954;2023-03-17T01:33:16;4.78;;;4.47;;
21254;SDS011;10785;50.674;17.954;2023-03-17T01:35:51;4.03;;;3.75;;
21254;SDS011;10785;50.674;17.954;2023-03-17T01:38:19;4.47;;;4.17;;
21254;SDS011;10785;50.674;17.954;2023-03-17T01:40:49;3.28;;;3.17;;
21254;SDS011;10785;50.674;17.954;2023-03-17T01:43:21;6.07;;;5.53;;
21254;SDS011;10785;50.674;17.954;2023-03-17T01:46:15;5.45;;;4.97;;
21254;SDS011;10785;50.674;17.954;2023-03-17T01:48:49;5.30;;;4.90;;
21254;SDS011;10785;50.674;17.954;2023-03-17T01:51:24;3.58;;;3.38;;
21254;SDS011;10785;50.674;17.954;2023-03-17T01:53:57;4.72;;;4.43;;
21254;SDS011;10785;50.674;17.954;2023-03-17T01:56:28;5.25;;;4.65;;
21254;SDS011;10785;50.674;17.954;2023-03-17T01:58:59;4.72;;;4.45;;
21254;SDS011;10785;50.674;17.954;2023-03-17T02:01:33;6.25;;;5.70;;
21254;SDS011;10785;50.674;17.954;2023-03-17T02:04:05;4.55;;;4.35;;
21254;SDS011;10785;50.674;17.954;2023-03-17T02:06:35;5.70;;;5.38;;
21254;SDS011;10785;50.674;17.954;2023-03-17T02:09:20;5.03;;;4.63;;
21254;SDS011;10785;50.674;17.954;2023-03-17T02:11:49;5.95;;;5.60;;
21254;SDS011;10785;50.674;17.954;2023-03-17T02:14:19;6.43;;;5.90;;
21254;SDS011;10785;50.674;17.954;2023-03-17T02:16:48;5.25;;;4.88;;
21254;SDS011;10785;50.674;17.954;2023-03-17T02:19:16;6.28;;;5.70;;
21254;SDS011;10785;50.674;17.954;2023-03-17T02:21:46;4.57;;;4.32;;
21254;SDS011;10785;50.674;17.954;2023-03-17T02:24:19;6.73;;;4.77;;
21254;SDS011;10785;50.674;17.954;2023-03-17T02:26:52;5.88;;;5.50;;
21254;SDS011;10785;50.674;17.954;2023-03-17T02:29:24;7.22;;;6.60;;
21254;SDS011;10785;50.674;17.954;2023-03-17T02:31:53;7.80;;;4.68;;
21254;SDS011;10785;50.674;17.954;2023-03-17T02:34:21;3.38;;;3.17;;
21254;SDS011;10785;50.674;17.954;2023-03-17T02:36:52;3.90;;;3.70;;
21254;SDS011;10785;50.674;17.954;2023-03-17T02:39:21;8.98;;;5.75;;
21254;SDS011;10785;50.674;17.954;2023-03-17T02:41:50;7.32;;;6.75;;
21254;SDS011;10785;50.674;17.954;2023-03-17T02:44:19;8.00;;;5.57;;
21254;SDS011;10785;50.674;17.954;2023-03-17T02:46:47;6.32;;;5.68;;
21254;SDS011;10785;50.674;17.954;2023-03-17T02:49:16;4.40;;;4.20;;
21254;SDS011;10785;50.674;17.954;2023-03-17T02:51:45;6.10;;;5.70;;
21254;SDS011;10785;50.674;17.954;2023-03-17T02:54:15;4.80;;;4.50;;
21254;SDS011;10785;50.674;17.954;2023-03-17T02:56:43;4.80;;;4.32;;
21254;SDS011;10785;50.674;17.954;2023-03-17T02:59:12;16.73;;;6.40;;
21254;SDS011;10785;50.674;17.954;2023-03-17T03:01:41;5.35;;;5.05;;
21254;SDS011;10785;50.674;17.954;2023-03-17T03:04:10;4.63;;;4.40;;
21254;SDS011;10785;50.674;17.954;2023-03-17T03:06:39;3.50;;;3.23;;
21254;SDS011;10785;50.674;17.954;2023-03-17T03:09:10;4.25;;;4.05;;
21254;SDS011;10785;50.674;17.954;2023-03-17T03:11:41;4.60;;;4.30;;
21254;SDS011;10785;50.674;17.954;2023-03-17T03:14:10;3.25;;;3.15;;
21254;SDS011;10785;50.674;17.954;2023-03-17T03:16:39;5.60;;;5.07;;
21254;SDS011;10785;50.674;17.954;2023-03-17T03:19:09;3.75;;;3.55;;
21254;SDS011;10785;50.674;17.954;2023-03-17T03:21:38;9.38;;;7.97;;
21254;SDS011;10785;50.674;17.954;2023-03-17T03:24:06;4.07;;;3.83;;
21254;SDS011;10785;50.674;17.954;2023-03-17T03:26:36;3.50;;;3.30;;
21254;SDS011;10785;50.674;17.954;2023-03-17T03:29:06;5.60;;;5.20;;
21254;SDS011;10785;50.674;17.954;2023-03-17T03:31:35;5.90;;;5.50;;
21254;SDS011;10785;50.674;17.954;2023-03-17T03:34:04;3.33;;;3.13;;
21254;SDS011;10785;50.674;17.954;2023-03-17T03:36:33;6.57;;;5.95;;
21254;SDS011;10785;50.674;17.954;2023-03-17T03:39:01;4.18;;;3.97;;
21254;SDS011;10785;50.674;17.954;2023-03-17T03:44:36;4.63;;;4.25;;
21254;SDS011;10785;50.674;17.954;2023-03-17T03:47:05;4.10;;;3.87;;
21254;SDS011;10785;50.674;17.954;2023-03-17T03:49:34;5.72;;;5.22;;
21254;SDS011;10785;50.674;17.954;2023-03-17T03:52:02;6.50;;;5.90;;
21254;SDS011;10785;50.674;17.954;2023-03-17T03:54:32;4.40;;;4.10;;
21254;SDS011;10785;50.674;17.954;2023-03-17T03:57:00;6.43;;;5.18;;
21254;SDS011;10785;50.674;17.954;2023-03-17T03:59:29;6.17;;;5.67;;
21254;SDS011;10785;50.674;17.954;2023-03-17T04:01:59;4.60;;;4.37;;
21254;SDS011;10785;50.674;17.954;2023-03-17T04:04:28;3.03;;;2.83;;
21254;SDS011;10785;50.674;17.954;2023-03-17T04:06:57;4.15;;;3.95;;
21254;SDS011;10785;50.674;17.954;2023-03-17T04:09:25;4.00;;;3.80;;
21254;SDS011;10785;50.674;17.954;2023-03-17T04:11:54;4.57;;;3.70;;
21254;SDS011;10785;50.674;17.954;2023-03-17T04:14:23;14.27;;;5.70;;
21254;SDS011;10785;50.674;17.954;2023-03-17T04:39:47;3.75;;;2.75;;
21254;SDS011;10785;50.674;17.954;2023-03-17T04:42:15;2.50;;;2.40;;
21254;SDS011;10785;50.674;17.954;2023-03-17T04:44:44;4.73;;;4.33;;
21254;SDS011;10785;50.674;17.954;2023-03-17T04:47:13;4.13;;;3.92;;
21254;SDS011;10785;50.674;17.954;2023-03-17T04:49:42;3.72;;;3.53;;
21254;SDS011;10785;50.674;17.954;2023-03-17T04:52:11;2.60;;;2.50;;
21254;SDS011;10785;50.674;17.954;2023-03-17T04:54:39;6.00;;;4.60;;
21254;SDS011;10785;50.674;17.954;2023-03-17T04:57:11;4.88;;;4.65;;
21254;SDS011;10785;50.674;17.954;2023-03-17T04:59:40;2.67;;;2.58;;
21254;SDS011;10785;50.674;17.954;2023-03-17T05:02:09;4.10;;;3.90;;
21254;SDS011;10785;50.674;17.954;2023-03-17T05:04:38;3.63;;;3.42;;
21254;SDS011;10785;50.674;17.954;2023-03-17T05:07:06;5.50;;;5.07;;
21254;SDS011;10785;50.674;17.954;2023-03-17T05:09:35;4.47;;;4.17;;
21254;SDS011;10785;50.674;17.954;2023-03-17T05:12:04;2.75;;;2.65;;
21254;SDS011;10785;50.674;17.954;2023-03-17T05:14:35;6.35;;;5.80;;
21254;SDS011;10785;50.674;17.954;2023-03-17T05:17:04;3.70;;;3.45;;
21254;SDS011;10785;50.674;17.954;2023-03-17T05:19:32;3.92;;;3.60;;
21254;SDS011;10785;50.674;17.954;2023-03-17T05:22:01;4.07;;;3.67;;
21254;SDS011;10785;50.674;17.954;2023-03-17T05:24:30;11.65;;;4.57;;
21254;SDS011;10785;50.674;17.954;2023-03-17T05:26:58;7.47;;;5.28;;
21254;SDS011;10785;50.674;17.954;2023-03-17T05:29:27;13.30;;;5.10;;
21254;SDS011;10785;50.674;17.954;2023-03-17T05:31:57;5.38;;;4.53;;
21254;SDS011;10785;50.674;17.954;2023-03-17T05:34:26;4.28;;;4.07;;
21254;SDS011;10785;50.674;17.954;2023-03-17T05:36:54;13.27;;;5.22;;
21254;SDS011;10785;50.674;17.954;2023-03-17T05:39:23;4.43;;;4.00;;
21254;SDS011;10785;50.674;17.954;2023-03-17T05:41:51;6.57;;;4.85;;
21254;SDS011;10785;50.674;17.954;2023-03-17T05:44:20;3.65;;;3.38;;
21254;SDS011;10785;50.674;17.954;2023-03-17T05:46:48;5.78;;;4.55;;
21254;SDS011;10785;50.674;17.954;2023-03-17T05:49:18;4.43;;;4.03;;
21254;SDS011;10785;50.674;17.954;2023-03-17T05:51:47;6.65;;;5.50;;
21254;SDS011;10785;50.674;17.954;2023-03-17T05:54:16;9.10;;;5.38;;
21254;SDS011;10785;50.674;17.954;2023-03-17T05:56:45;12.90;;;3.65;;
21254;SDS011;10785;50.674;17.954;2023-03-17T05:59:13;7.90;;;4.10;;
21254;SDS011;10785;50.674;17.954;2023-03-17T06:01:44;27.85;;;5.07;;
21254;SDS011;10785;50.674;17.954;2023-03-17T06:04:12;4.32;;;3.75;;
21254;SDS011;10785;50.674;17.954;2023-03-17T06:06:42;4.65;;;4.25;;
21254;SDS011;10785;50.674;17.954;2023-03-17T06:09:11;4.40;;;3.97;;
21254;SDS011;10785;50.674;17.954;2023-03-17T06:11:39;4.32;;;3.25;;
21254;SDS011;10785;50.674;17.954;2023-03-17T06:14:09;4.18;;;3.38;;
21254;SDS011;10785;50.674;17.954;2023-03-17T06:16:38;4.22;;;3.67;;
21254;SDS011;10785;50.674;17.954;2023-03-17T06:19:07;5.78;;;5.32;;
21254;SDS011;10785;50.674;17.954;2023-03-17T06:21:36;7.97;;;5.50;;
21254;SDS011;10785;50.674;17.954;2023-03-17T06:24:07;3.85;;;3.55;;
21254;SDS011;10785;50.674;17.954;2023-03-17T06:26:35;4.13;;;3.92;;
21254;SDS011;10785;50.674;17.954;2023-03-17T06:29:04;3.80;;;3.50;;
21254;SDS011;10785;50.674;17.954;2023-03-17T06:31:35;2.17;;;2.08;;
21254;SDS011;10785;50.674;17.954;2023-03-17T06:34:04;4.90;;;4.47;;
21254;SDS011;10785;50.674;17.954;2023-03-17T06:36:33;26.17;;;4.63;;
21254;SDS011;10785;50.674;17.954;2023-03-17T06:39:04;3.40;;;3.20;;
21254;SDS011;10785;50.674;17.954;2023-03-17T06:41:34;5.90;;;3.73;;
21254;SDS011;10785;50.674;17.954;2023-03-17T06:44:03;3.58;;;3.28;;
21254;SDS011;10785;50.674;17.954;2023-03-17T06:46:32;3.20;;;3.00;;
21254;SDS011;10785;50.674;17.954;2023-03-17T06:49:01;3.05;;;2.90;;
21254;SDS011;10785;50.674;17.954;2023-03-17T06:51:30;2.47;;;2.38;;
21254;SDS011;10785;50.674;17.954;2023-03-17T06:54:00;3.80;;;3.00;;
21254;SDS011;10785;50.674;17.954;2023-03-17T06:56:28;5.40;;;2.90;;
21254;SDS011;10785;50.674;17.954;2023-03-17T06:58:58;3.78;;;3.47;;
21254;SDS011;10785;50.674;17.954;2023-03-17T07:01:27;3.97;;;3.17;;
21254;SDS011;10785;50.674;17.954;2023-03-17T07:03:55;2.78;;;2.58;;
21254;SDS011;10785;50.674;17.954;2023-03-17T07:06:24;3.72;;;3.38;;
21254;SDS011;10785;50.674;17.954;2023-03-17T07:08:54;2.20;;;2.10;;
21254;SDS011;10785;50.674;17.954;2023-03-17T07:11:23;2.00;;;1.90;;
21254;SDS011;10785;50.674;17.954;2023-03-17T07:13:51;2.10;;;2.00;;
21254;SDS011;10785;50.674;17.954;2023-03-17T07:16:22;2.17;;;1.98;;
21254;SDS011;10785;50.674;17.954;2023-03-17T07:18:50;4.25;;;3.28;;
21254;SDS011;10785;50.674;17.954;2023-03-17T07:21:19;2.65;;;2.13;;
21254;SDS011;10785;50.674;17.954;2023-03-17T07:23:48;2.22;;;2.03;;
21254;SDS011;10785;50.674;17.954;2023-03-17T07:26:17;1.60;;;1.60;;
21254;SDS011;10785;50.674;17.954;2023-03-17T07:28:45;8.27;;;1.90;;
21254;SDS011;10785;50.674;17.954;2023-03-17T07:31:14;2.55;;;1.90;;
21254;SDS011;10785;50.674;17.954;2023-03-17T07:33:44;6.82;;;2.45;;
21254;SDS011;10785;50.674;17.954;2023-03-17T07:36:13;1.88;;;1.77;;
21254;SDS011;10785;50.674;17.954;2023-03-17T07:38:42;3.33;;;3.00;;
21254;SDS011;10785;50.674;17.954;2023-03-17T07:41:11;2.17;;;2.08;;
21254;SDS011;10785;50.674;17.954;2023-03-17T07:43:39;2.42;;;2.30;;
21254;SDS011;10785;50.674;17.954;2023-03-17T07:46:08;2.33;;;2.15;;
21254;SDS011;10785;50.674;17.954;2023-03-17T07:48:37;2.13;;;2.03;;
21254;SDS011;10785;50.674;17.954;2023-03-17T07:51:11;3.65;;;2.90;;
21254;SDS011;10785;50.674;17.954;2023-03-17T07:53:41;2.42;;;2.25;;
21254;SDS011;10785;50.674;17.954;2023-03-17T07:56:10;2.28;;;2.05;;
21254;SDS011;10785;50.674;17.954;2023-03-17T07:58:40;2.92;;;2.67;;
21254;SDS011;10785;50.674;17.954;2023-03-17T08:01:08;1.88;;;1.77;;
21254;SDS011;10785;50.674;17.954;2023-03-17T08:55:32;1.50;;;1.50;;
21254;SDS011;10785;50.674;17.954;2023-03-17T08:58:00;1.60;;;1.58;;
21254;SDS011;10785;50.674;17.954;2023-03-17T09:00:30;3.35;;;3.05;;
21254;SDS011;10785;50.674;17.954;2023-03-17T09:02:59;4.10;;;2.33;;
21254;SDS011;10785;50.674;17.954;2023-03-17T09:05:29;2.40;;;2.30;;
21254;SDS011;10785;50.674;17.954;2023-03-17T09:07:58;5.53;;;2.35;;
21254;SDS011;10785;50.674;17.954;2023-03-17T09:10:27;1.30;;;1.30;;
21254;SDS011;10785;50.674;17.954;2023-03-17T09:12:58;1.60;;;1.35;;
21254;SDS011;10785;50.674;17.954;2023-03-17T09:15:29;27.20;;;2.25;;
21254;SDS011;10785;50.674;17.954;2023-03-17T09:17:59;1.40;;;1.40;;
21254;SDS011;10785;50.674;17.954;2023-03-17T09:20:29;2.17;;;2.08;;
21254;SDS011;10785;50.674;17.954;2023-03-17T09:22:59;1.42;;;1.35;;
21254;SDS011;10785;50.674;17.954;2023-03-17T09:25:29;2.28;;;2.15;;
21254;SDS011;10785;50.674;17.954;2023-03-17T09:27:59;3.10;;;1.90;;
21254;SDS011;10785;50.674;17.954;2023-03-17T09:30:27;1.67;;;1.58;;
21254;SDS011;10785;50.674;17.954;2023-03-17T09:32:56;1.65;;;1.55;;
21254;SDS011;10785;50.674;17.954;2023-03-17T09:35:26;1.77;;;1.67;;
21254;SDS011;10785;50.674;17.954;2023-03-17T09:37:57;4.30;;;2.30;;
21254;SDS011;10785;50.674;17.954;2023-03-17T09:40:27;2.08;;;1.98;;
21254;SDS011;10785;50.674;17.954;2023-03-17T09:43:03;4.32;;;2.13;;
21254;SDS011;10785;50.674;17.954;2023-03-17T09:45:42;7.40;;;2.50;;
21254;SDS011;10785;50.674;17.954;2023-03-17T09:48:19;1.92;;;1.73;;
21254;SDS011;10785;50.674;17.954;2023-03-17T09:50:55;4.00;;;2.20;;
21254;SDS011;10785;50.674;17.954;2023-03-17T09:53:28;1.60;;;1.50;;
21254;SDS011;10785;50.674;17.954;2023-03-17T09:56:03;1.40;;;1.30;;
21254;SDS011;10785;50.674;17.954;2023-03-17T09:58:35;1.80;;;1.70;;
21254;SDS011;10785;50.674;17.954;2023-03-17T10:01:07;1.52;;;1.42;;
21254;SDS011;10785;50.674;17.954;2023-03-17T10:03:38;1.30;;;1.30;;
21254;SDS011;10785;50.674;17.954;2023-03-17T10:06:15;1.40;;;1.38;;
21254;SDS011;10785;50.674;17.954;2023-03-17T10:08:50;2.10;;;1.92;;
21254;SDS011;10785;50.674;17.954;2023-03-17T10:11:25;2.75;;;1.77;;
21254;SDS011;10785;50.674;17.954;2023-03-17T10:14:04;1.42;;;1.33;;
21254;SDS011;10785;50.674;17.954;2023-03-17T10:16:43;2.30;;;2.08;;
21254;SDS011;10785;50.674;17.954;2023-03-17T10:19:20;1.02;;;1.02;;
21254;SDS011;10785;50.674;17.954;2023-03-17T10:21:55;1.50;;;1.40;;
21254;SDS011;10785;50.674;17.954;2023-03-17T10:24:27;1.98;;;1.58;;
21254;SDS011;10785;50.674;17.954;2023-03-17T10:26:59;1.30;;;0.98;;
21254;SDS011;10785;50.674;17.954;2023-03-17T10:29:33;3.60;;;2.05;;
21254;SDS011;10785;50.674;17.954;2023-03-17T10:32:02;1.20;;;1.17;;
21254;SDS011;10785;50.674;17.954;2023-03-17T10:34:32;2.60;;;1.00;;
21254;SDS011;10785;50.674;17.954;2023-03-17T10:37:04;1.50;;;1.40;;
21254;SDS011;10785;50.674;17.954;2023-03-17T10:39:40;2.00;;;1.48;;
21254;SDS011;10785;50.674;17.954;2023-03-17T10:42:12;1.75;;;1.60;;
21254;SDS011;10785;50.674;17.954;2023-03-17T10:44:51;1.45;;;1.35;;
21254;SDS011;10785;50.674;17.954;2023-03-17T10:47:23;1.90;;;1.67;;
21254;SDS011;10785;50.674;17.954;2023-03-17T10:49:58;1.92;;;1.83;;
21254;SDS011;10785;50.674;17.954;2023-03-17T10:52:30;1.17;;;1.17;;
21254;SDS011;10785;50.674;17.954;2023-03-17T10:55:03;1.40;;;1.30;;
21254;SDS011;10785;50.674;17.954;2023-03-17T10:57:34;1.30;;;1.20;;
21254;SDS011;10785;50.674;17.954;2023-03-17T11:00:10;1.83;;;1.73;;
21254;SDS011;10785;50.674;17.954;2023-03-17T11:02:42;1.08;;;0.90;;
21254;SDS011;10785;50.674;17.954;2023-03-17T11:05:17;1.70;;;1.60;;
21254;SDS011;10785;50.674;17.954;2023-03-17T11:07:47;1.00;;;1.00;;
21254;SDS011;10785;50.674;17.954;2023-03-17T11:10:18;1.15;;;1.15;;
21254;SDS011;10785;50.674;17.954;2023-03-17T11:12:53;1.00;;;1.00;;
21254;SDS011;10785;50.674;17.954;2023-03-17T11:15:27;1.75;;;1.65;;
21254;SDS011;10785;50.674;17.954;2023-03-17T11:17:59;1.00;;;1.00;;
21254;SDS011;10785;50.674;17.954;2023-03-17T11:20:40;1.70;;;1.60;;
21254;SDS011;10785;50.674;17.954;2023-03-17T11:26:15;2.92;;;1.77;;
21254;SDS011;10785;50.674;17.954;2023-03-17T11:32:17;0.80;;;0.80;;
21254;SDS011;10785;50.674;17.954;2023-03-17T11:35:02;1.60;;;1.50;;
21254;SDS011;10785;50.674;17.954;2023-03-17T11:37:58;1.98;;;1.88;;
21254;SDS011;10785;50.674;17.954;2023-03-17T11:40:36;2.13;;;2.03;;
21254;SDS011;10785;50.674;17.954;2023-03-17T11:43:18;0.70;;;0.70;;
21254;SDS011;10785;50.674;17.954;2023-03-17T11:45:53;4.25;;;2.20;;
21254;SDS011;10785;50.674;17.954;2023-03-17T11:48:32;3.80;;;1.88;;
21254;SDS011;10785;50.674;17.954;2023-03-17T11:51:10;1.73;;;1.63;;
21254;SDS011;10785;50.674;17.954;2023-03-17T11:53:51;2.70;;;1.50;;
21254;SDS011;10785;50.674;17.954;2023-03-17T11:56:29;1.50;;;1.40;;
21254;SDS011;10785;50.674;17.954;2023-03-17T11:59:05;3.83;;;3.47;;
21254;SDS011;10785;50.674;17.954;2023-03-17T12:01:53;1.33;;;1.33;;
21254;SDS011;10785;50.674;17.954;2023-03-17T12:04:29;2.10;;;1.65;;
21254;SDS011;10785;50.674;17.954;2023-03-17T12:07:04;1.08;;;1.08;;
21254;SDS011;10785;50.674;17.954;2023-03-17T12:09:46;1.60;;;1.50;;
21254;SDS011;10785;50.674;17.954;2023-03-17T12:12:23;2.75;;;2.55;;
21254;SDS011;10785;50.674;17.954;2023-03-17T12:14:56;1.83;;;1.73;;
21254;SDS011;10785;50.674;17.954;2023-03-17T12:17:32;1.13;;;1.13;;
21254;SDS011;10785;50.674;17.954;2023-03-17T12:20:06;1.73;;;1.38;;
21254;SDS011;10785;50.674;17.954;2023-03-17T12:22:43;1.40;;;1.35;;
21254;SDS011;10785;50.674;17.954;2023-03-17T12:25:17;1.58;;;1.35;;
21254;SDS011;10785;50.674;17.954;2023-03-17T12:27:53;1.30;;;1.20;;
21254;SDS011;10785;50.674;17.954;2023-03-17T12:30:28;1.95;;;1.70;;
21254;SDS011;10785;50.674;17.954;2023-03-17T12:33:08;2.03;;;1.67;;
21254;SDS011;10785;50.674;17.954;2023-03-17T12:35:46;1.35;;;1.25;;
21254;SDS011;10785;50.674;17.954;2023-03-17T12:38:15;1.95;;;1.85;;
21254;SDS011;10785;50.674;17.954;2023-03-17T12:40:58;3.33;;;2.88;;
21254;SDS011;10785;50.674;17.954;2023-03-17T12:43:46;1.73;;;1.55;;
21254;SDS011;10785;50.674;17.954;2023-03-17T12:46:34;1.48;;;1.38;;
21254;SDS011;10785;50.674;17.954;2023-03-17T12:49:23;2.35;;;2.15;;
21254;SDS011;10785;50.674;17.954;2023-03-17T12:52:13;1.27;;;1.10;;
21254;SDS011;10785;50.674;17.954;2023-03-17T12:54:48;2.15;;;1.40;;
21254;SDS011;10785;50.674;17.954;2023-03-17T12:57:18;2.00;;;1.90;;
21254;SDS011;10785;50.674;17.954;2023-03-17T12:59:55;3.72;;;2.97;;
21254;SDS011;10785;50.674;17.954;2023-03-17T13:02:30;1.15;;;1.13;;
21254;SDS011;10785;50.674;17.954;2023-03-17T13:05:04;1.75;;;1.65;;
21254;SDS011;10785;50.674;17.954;2023-03-17T13:07:38;2.20;;;1.98;;
21254;SDS011;10785;50.674;17.954;2023-03-17T13:10:17;2.25;;;2.05;;
21254;SDS011;10785;50.674;17.954;2023-03-17T13:13:06;1.42;;;1.35;;
21254;SDS011;10785;50.674;17.954;2023-03-17T13:15:52;1.92;;;1.83;;
21254;SDS011;10785;50.674;17.954;2023-03-17T14:56:30;1.75;;;1.65;;
21254;SDS011;10785;50.674;17.954;2023-03-17T14:59:06;4.97;;;1.30;;
21254;SDS011;10785;50.674;17.954;2023-03-17T15:01:43;1.95;;;1.77;;
21254;SDS011;10785;50.674;17.954;2023-03-17T15:04:15;0.88;;;0.85;;
21254;SDS011;10785;50.674;17.954;2023-03-17T15:06:46;1.38;;;1.27;;
21254;SDS011;10785;50.674;17.954;2023-03-17T15:09:16;2.30;;;2.13;;
21254;SDS011;10785;50.674;17.954;2023-03-17T15:11:48;1.00;;;1.00;;
21254;SDS011;10785;50.674;17.954;2023-03-17T15:14:18;2.15;;;1.80;;
21254;SDS011;10785;50.674;17.954;2023-03-17T15:16:51;1.85;;;1.75;;
21254;SDS011;10785;50.674;17.954;2023-03-17T15:28:43;2.80;;;1.95;;
21254;SDS011;10785;50.674;17.954;2023-03-17T15:31:12;5.28;;;1.33;;
21254;SDS011;10785;50.674;17.954;2023-03-17T15:33:41;2.75;;;2.20;;
21254;SDS011;10785;50.674;17.954;2023-03-17T15:36:12;2.47;;;1.45;;
21254;SDS011;10785;50.674;17.954;2023-03-17T15:38:59;1.88;;;1.30;;
21254;SDS011;10785;50.674;17.954;2023-03-17T15:41:29;1.30;;;1.20;;
21254;SDS011;10785;50.674;17.954;2023-03-17T15:43:59;1.52;;;1.42;;
21254;SDS011;10785;50.674;17.954;2023-03-17T15:46:30;1.67;;;1.35;;
21254;SDS011;10785;50.674;17.954;2023-03-17T16:01:54;3.63;;;2.05;;
21254;SDS011;10785;50.674;17.954;2023-03-17T16:04:23;1.35;;;1.25;;
21254;SDS011;10785;50.674;17.954;2023-03-17T16:06:52;1.85;;;1.75;;
21254;SDS011;10785;50.674;17.954;2023-03-17T16:09:20;1.00;;;1.00;;
21254;SDS011;10785;50.674;17.954;2023-03-17T16:11:49;1.95;;;1.85;;
21254;SDS011;10785;50.674;17.954;2023-03-17T16:14:17;15.95;;;2.20;;
21254;SDS011;10785;50.674;17.954;2023-03-17T16:16:50;2.38;;;1.27;;
21254;SDS011;10785;50.674;17.954;2023-03-17T16:19:20;1.65;;;1.27;;
21254;SDS011;10785;50.674;17.954;2023-03-17T16:21:50;3.03;;;2.70;;
21254;SDS011;10785;50.674;17.954;2023-03-17T16:24:21;1.20;;;1.20;;
21254;SDS011;10785;50.674;17.954;2023-03-17T16:26:51;16.13;;;2.63;;
21254;SDS011;10785;50.674;17.954;2023-03-17T16:29:20;2.35;;;2.00;;
21254;SDS011;10785;50.674;17.954;2023-03-17T16:31:49;2.15;;;2.00;;
21254;SDS011;10785;50.674;17.954;2023-03-17T16:34:22;1.00;;;1.00;;
21254;SDS011;10785;50.674;17.954;2023-03-17T16:36:51;2.08;;;1.42;;
21254;SDS011;10785;50.674;17.954;2023-03-17T16:39:21;1.60;;;1.55;;
21254;SDS011;10785;50.674;17.954;2023-03-17T16:41:51;1.80;;;1.70;;
21254;SDS011;10785;50.674;17.954;2023-03-17T16:44:20;4.07;;;2.72;;
21254;SDS011;10785;50.674;17.954;2023-03-17T16:46:49;16.40;;;3.17;;
21254;SDS011;10785;50.674;17.954;2023-03-17T16:49:19;8.57;;;2.00;;
21254;SDS011;10785;50.674;17.954;2023-03-17T16:51:49;1.63;;;1.52;;
21254;SDS011;10785;50.674;17.954;2023-03-17T16:54:17;9.82;;;3.47;;
21254;SDS011;10785;50.674;17.954;2023-03-17T16:56:46;1.38;;;1.35;;
21254;SDS011;10785;50.674;17.954;2023-03-17T16:59:16;2.13;;;1.92;;
21254;SDS011;10785;50.674;17.954;2023-03-17T17:01:47;3.47;;;2.58;;
21254;SDS011;10785;50.674;17.954;2023-03-17T17:04:15;2.45;;;2.35;;
21254;SDS011;10785;50.674;17.954;2023-03-17T17:06:45;3.17;;;1.48;;
21254;SDS011;10785;50.674;17.954;2023-03-17T17:09:14;2.25;;;2.15;;
21254;SDS011;10785;50.674;17.954;2023-03-17T17:11:43;7.00;;;3.80;;
21254;SDS011;10785;50.674;17.954;2023-03-17T17:14:11;1.10;;;1.10;;
21254;SDS011;10785;50.674;17.954;2023-03-17T17:16:40;2.83;;;2.17;;
21254;SDS011;10785;50.674;17.954;2023-03-17T17:19:11;1.33;;;1.30;;
21254;SDS011;10785;50.674;17.954;2023-03-17T17:38:10;2.70;;;1.75;;
21254;SDS011;10785;50.674;17.954;2023-03-17T17:40:44;2.58;;;2.35;;
21254;SDS011;10785;50.674;17.954;2023-03-17T17:43:12;1.92;;;1.83;;
21254;SDS011;10785;50.674;17.954;2023-03-17T17:45:44;2.03;;;1.92;;
21254;SDS011;10785;50.674;17.954;2023-03-17T17:48:15;1.88;;;1.77;;
21254;SDS011;10785;50.674;17.954;2023-03-17T17:50:45;3.83;;;2.47;;
21254;SDS011;10785;50.674;17.954;2023-03-17T17:53:15;1.95;;;1.85;;
21254;SDS011;10785;50.674;17.954;2023-03-17T17:55:45;4.78;;;2.92;;
21254;SDS011;10785;50.674;17.954;2023-03-17T17:58:16;3.42;;;3.20;;
21254;SDS011;10785;50.674;17.954;2023-03-17T18:00:47;3.03;;;2.83;;
21254;SDS011;10785;50.674;17.954;2023-03-17T18:03:16;2.78;;;2.55;;
21254;SDS011;10785;50.674;17.954;2023-03-17T18:05:48;6.20;;;3.30;;
21254;SDS011;10785;50.674;17.954;2023-03-17T18:08:18;8.60;;;3.08;;
21254;SDS011;10785;50.674;17.954;2023-03-17T18:10:46;4.40;;;2.22;;
21254;SDS011;10785;50.674;17.954;2023-03-17T18:13:18;3.60;;;3.10;;
21254;SDS011;10785;50.674;17.954;2023-03-17T18:15:46;4.53;;;3.75;;
21254;SDS011;10785;50.674;17.954;2023-03-17T18:18:15;2.50;;;2.03;;
21254;SDS011;10785;50.674;17.954;2023-03-17T18:20:43;4.10;;;2.25;;
21254;SDS011;10785;50.674;17.954;2023-03-17T18:23:12;2.30;;;2.17;;
21254;SDS011;10785;50.674;17.954;2023-03-17T18:25:43;1.65;;;1.55;;
21254;SDS011;10785;50.674;17.954;2023-03-17T18:28:12;5.85;;;2.65;;
21254;SDS011;10785;50.674;17.954;2023-03-17T18:30:40;2.35;;;2.25;;
21254;SDS011;10785;50.674;17.954;2023-03-17T18:33:12;2.05;;;1.95;;
21254;SDS011;10785;50.674;17.954;2023-03-17T18:35:44;1.35;;;1.35;;
21254;SDS011;10785;50.674;17.954;2023-03-17T18:38:14;3.53;;;3.22;;
21254;SDS011;10785;50.674;17.954;2023-03-17T18:40:44;2.58;;;2.38;;
21254;SDS011;10785;50.674;17.954;2023-03-17T18:43:13;5.22;;;3.67;;
21254;SDS011;10785;50.674;17.954;2023-03-17T18:45:41;3.42;;;3.15;;
21254;SDS011;10785;50.674;17.954;2023-03-17T18:48:10;2.55;;;2.45;;
21254;SDS011;10785;50.674;17.954;2023-03-17T18:50:39;19.95;;;3.08;;
21254;SDS011;10785;50.674;17.954;2023-03-17T18:53:07;2.15;;;2.05;;
21254;SDS011;10785;50.674;17.954;2023-03-17T18:55:36;3.60;;;3.05;;
21254;SDS011;10785;50.674;17.954;2023-03-17T18:58:06;2.38;;;2.17;;
21254;SDS011;10785;50.674;17.954;2023-03-17T19:00:34;4.18;;;3.83;;
21254;SDS011;10785;50.674;17.954;2023-03-17T19:03:03;3.38;;;3.15;;
21254;SDS011;10785;50.674;17.954;2023-03-17T19:05:33;3.90;;;3.60;;
21254;SDS011;10785;50.674;17.954;2023-03-17T19:08:03;5.07;;;3.63;;
21254;SDS011;10785;50.674;17.954;2023-03-17T19:10:32;4.78;;;4.38;;
21254;SDS011;10785;50.674;17.954;2023-03-17T19:13:02;3.28;;;3.00;;